createdAt,value
2022-09-07T00:01:21.159Z,4.93
2022-09-07T00:03:49.903Z,5.18
2022-09-07T00:06:18.598Z,5.15
2022-09-07T00:08:47.173Z,5.15
2022-09-07T00:14:14.994Z,5.12
2022-09-07T00:16:43.644Z,5.09
2022-09-07T00:19:12.252Z,5.08
2022-09-07T00:21:40.860Z,5.09
2022-09-07T00:24:09.501Z,4.95
2022-09-07T00:26:38.343Z,5.00
2022-09-07T00:29:08.151Z,5.12
2022-09-07T00:31:38.331Z,5.08
2022-09-07T00:34:06.987Z,5.12
2022-09-07T00:36:35.574Z,5.10
2022-09-07T00:39:04.428Z,5.13
2022-09-07T00:41:33.162Z,5.14
2022-09-07T00:44:39.919Z,4.99
2022-09-07T00:47:13.262Z,5.10
2022-09-07T00:49:44.421Z,5.16
2022-09-07T00:52:14.049Z,5.13
2022-09-07T00:54:45.096Z,5.10
2022-09-07T00:57:14.417Z,5.10
2022-09-07T00:59:44.778Z,4.99
2022-09-07T01:02:17.422Z,4.98
2022-09-07T01:04:49.351Z,4.82
2022-09-07T01:07:18.256Z,5.01
2022-09-07T01:09:48.060Z,5.02
2022-09-07T01:12:16.690Z,4.98
2022-09-07T01:14:47.592Z,4.97
2022-09-07T01:17:22.271Z,4.93
2022-09-07T01:20:30.388Z,4.85
2022-09-07T01:23:22.476Z,4.75
2022-09-07T01:26:03.272Z,4.87
2022-09-07T01:28:34.080Z,4.85
2022-09-07T01:31:10.141Z,4.82
2022-09-07T01:33:47.997Z,4.75
2022-09-07T01:36:23.186Z,4.71
2022-09-07T01:38:54.614Z,4.67
2022-09-07T01:41:26.432Z,4.64
2022-09-07T01:44:01.247Z,4.62
2022-09-07T01:46:30.029Z,4.61
2022-09-07T01:49:09.756Z,4.58
2022-09-07T01:51:41.997Z,4.56
2022-09-07T01:54:16.624Z,4.53
2022-09-07T01:56:46.808Z,4.50
2022-09-07T01:59:22.257Z,4.50
2022-09-07T02:01:55.213Z,4.29
2022-09-07T02:04:26.553Z,4.42
2022-09-07T02:06:57.912Z,4.55
2022-09-07T02:09:32.534Z,4.56
2022-09-07T02:12:03.552Z,4.58
2022-09-07T02:14:37.506Z,4.54
2022-09-07T02:17:12.370Z,4.55
2022-09-07T02:19:42.679Z,4.57
2022-09-07T02:22:14.815Z,4.59
2022-09-07T02:24:45.809Z,4.61
2022-09-07T02:27:16.719Z,4.45
2022-09-07T02:29:47.218Z,4.59
2022-09-07T02:32:15.861Z,4.61
2022-09-07T02:34:44.624Z,4.60
2022-09-07T02:37:15.709Z,4.59
2022-09-07T02:39:44.725Z,4.66
2022-09-07T02:42:13.432Z,4.69
2022-09-07T02:44:42.938Z,4.68
2022-09-07T02:47:33.347Z,4.64
2022-09-07T02:50:22.420Z,4.72
2022-09-07T02:52:59.972Z,4.73
2022-09-07T02:55:34.589Z,4.78
2022-09-07T02:58:12.931Z,4.80
2022-09-07T03:00:46.568Z,4.82
2022-09-07T03:03:22.915Z,4.80
2022-09-07T03:05:53.852Z,4.78
2022-09-07T03:08:26.014Z,4.78
2022-09-07T03:10:54.952Z,4.82
2022-09-07T03:13:24.450Z,4.85
2022-09-07T03:15:55.882Z,4.88
2022-09-07T03:18:27.434Z,4.84
2022-09-07T03:20:56.415Z,4.79
2022-09-07T03:23:25.252Z,4.89
2022-09-07T03:25:54.397Z,4.92
2022-09-07T03:28:25.454Z,4.94
2022-09-07T03:30:54.157Z,4.64
2022-09-07T03:33:22.809Z,4.94
2022-09-07T03:36:01.286Z,4.87
2022-09-07T03:38:31.799Z,4.97
2022-09-07T03:41:01.713Z,5.00
2022-09-07T03:43:31.186Z,4.90
2022-09-07T03:46:00.382Z,5.06
2022-09-07T03:48:31.325Z,5.10
2022-09-07T03:51:03.830Z,4.91
2022-09-07T03:53:32.949Z,5.12
2022-09-07T03:56:03.170Z,5.01
2022-09-07T03:58:33.154Z,5.06
2022-09-07T04:01:02.765Z,5.05
2022-09-07T04:03:31.417Z,5.06
2022-09-07T04:06:01.675Z,5.07
2022-09-07T04:08:31.967Z,5.07
2022-09-07T04:11:01.612Z,5.06
2022-09-07T04:13:31.357Z,5.02
2022-09-07T04:15:59.999Z,5.17
2022-09-07T04:18:28.619Z,5.26
2022-09-07T04:21:01.706Z,5.37
2022-09-07T04:23:30.340Z,5.21
2022-09-07T04:25:58.935Z,5.48
2022-09-07T04:28:27.620Z,5.43
2022-09-07T04:30:56.290Z,5.36
2022-09-07T04:33:24.987Z,5.60
2022-09-07T04:35:53.664Z,5.66
2022-09-07T04:38:23.774Z,5.80
2022-09-07T04:40:52.395Z,5.92
2022-09-07T04:43:21.006Z,6.02
2022-09-07T04:45:49.676Z,6.08
2022-09-07T04:48:18.320Z,6.34
2022-09-07T04:50:47.025Z,6.50
2022-09-07T04:53:15.641Z,6.66
2022-09-07T04:55:45.668Z,6.77
2022-09-07T04:58:14.282Z,6.75
2022-09-07T05:00:43.144Z,6.73
2022-09-07T05:03:11.764Z,6.73
2022-09-07T05:05:40.482Z,6.92
2022-09-07T05:08:09.185Z,6.90
2022-09-07T05:10:37.872Z,6.98
2022-09-07T05:13:07.985Z,6.84
2022-09-07T05:15:36.589Z,7.03
2022-09-07T05:18:05.653Z,6.83
2022-09-07T05:20:34.342Z,6.72
2022-09-07T05:23:02.953Z,6.82
2022-09-07T05:25:32.891Z,6.62
2022-09-07T05:28:01.592Z,6.60
2022-09-07T05:33:20.675Z,6.84
2022-09-07T05:35:57.971Z,6.70
2022-09-07T05:38:26.858Z,7.08
2022-09-07T05:40:55.550Z,7.28
2022-09-07T05:43:24.140Z,7.36
2022-09-07T05:45:55.955Z,6.94
2022-09-07T05:48:24.656Z,7.01
2022-09-07T05:50:54.291Z,6.84
2022-09-07T05:53:23.274Z,6.84
2022-09-07T05:55:51.999Z,6.97
2022-09-07T05:58:20.871Z,7.16
2022-09-07T06:00:49.496Z,7.50
2022-09-07T06:03:19.660Z,7.53
2022-09-07T06:05:48.424Z,7.16
2022-09-07T06:08:17.019Z,7.51
2022-09-07T06:10:45.836Z,7.48
2022-09-07T06:13:14.462Z,7.66
2022-09-07T06:15:43.390Z,7.71
2022-09-07T06:18:11.986Z,7.88
2022-09-07T06:20:42.218Z,7.76
2022-09-07T06:23:10.809Z,7.98
2022-09-07T06:25:39.403Z,7.86
2022-09-07T06:28:08.326Z,8.35
2022-09-07T06:30:37.939Z,8.67
2022-09-07T06:33:06.546Z,8.82
2022-09-07T06:35:35.208Z,8.83
2022-09-07T06:38:05.242Z,9.04
2022-09-07T06:40:35.269Z,8.95
2022-09-07T06:43:03.867Z,9.05
2022-09-07T06:45:32.526Z,9.21
2022-09-07T06:48:01.191Z,9.38
2022-09-07T06:50:29.899Z,9.40
2022-09-07T06:55:59.352Z,9.17
2022-09-07T06:58:28.835Z,8.94
2022-09-07T07:00:59.009Z,9.05
2022-09-07T07:03:30.136Z,9.21
2022-09-07T07:05:58.924Z,9.18
2022-09-07T07:08:30.136Z,9.04
2022-09-07T07:11:03.076Z,9.13
2022-09-07T07:13:31.810Z,9.29
2022-09-07T07:16:05.049Z,9.15
2022-09-07T07:18:34.226Z,9.35
2022-09-07T07:21:03.880Z,9.12
2022-09-07T07:23:35.648Z,9.69
2022-09-07T07:26:04.327Z,9.44
2022-09-07T07:31:23.773Z,9.43
2022-09-07T07:33:54.234Z,9.17
2022-09-07T07:36:24.147Z,9.32
2022-09-07T07:38:59.510Z,9.53
2022-09-07T07:44:20.584Z,9.97
2022-09-07T07:46:50.453Z,10.33
2022-09-07T07:49:19.324Z,10.22
2022-09-07T07:54:38.162Z,10.47
2022-09-07T07:57:07.130Z,10.37
2022-09-07T07:59:35.877Z,10.52
2022-09-07T08:02:05.901Z,10.44
2022-09-07T08:04:35.267Z,10.12
2022-09-07T08:07:09.661Z,9.98
2022-09-07T08:09:41.609Z,9.93
2022-09-07T08:12:11.491Z,9.92
2022-09-07T08:14:42.439Z,9.86
2022-09-07T08:17:12.052Z,9.85
2022-09-07T08:19:41.146Z,10.02
2022-09-07T08:22:10.767Z,9.90
2022-09-07T08:24:41.318Z,10.10
2022-09-07T08:27:09.988Z,10.09
2022-09-07T08:29:38.576Z,10.33
2022-09-07T08:32:07.561Z,10.35
2022-09-07T08:34:38.813Z,10.65
2022-09-07T08:37:09.751Z,10.73
2022-09-07T08:39:43.345Z,10.70
2022-09-07T08:42:26.083Z,10.59
2022-09-07T08:44:58.602Z,10.57
2022-09-07T08:47:31.039Z,10.39
2022-09-07T08:50:03.169Z,10.35
2022-09-07T08:52:42.665Z,10.29
2022-09-07T08:55:16.827Z,10.27
2022-09-07T08:57:49.188Z,10.54
2022-09-07T09:00:19.128Z,10.77
2022-09-07T09:03:28.691Z,11.04
2022-09-07T09:05:43.406Z,11.31
2022-09-07T09:08:22.420Z,11.63
2022-09-07T09:11:04.001Z,11.55
2022-09-07T09:13:48.329Z,10.88
2022-09-07T09:16:23.145Z,11.41
2022-09-07T09:19:01.705Z,11.59
2022-09-07T09:21:30.356Z,11.70
2022-09-07T09:24:03.620Z,11.91
2022-09-07T09:26:35.612Z,12.09
2022-09-07T09:29:14.410Z,12.11
2022-09-07T09:31:43.290Z,12.17
2022-09-07T09:34:13.667Z,12.26
2022-09-07T09:36:47.414Z,11.96
2022-09-07T09:39:32.053Z,11.97
2022-09-07T09:42:14.620Z,12.21
2022-09-07T09:44:44.032Z,12.11
2022-09-07T09:47:30.155Z,12.16
2022-09-07T09:50:01.073Z,11.97
2022-09-07T09:52:36.988Z,11.94
2022-09-07T09:55:34.344Z,11.67
2022-09-07T10:03:56.741Z,11.54
2022-09-07T10:06:26.912Z,11.38
2022-09-07T10:08:58.643Z,10.95
2022-09-07T10:14:36.341Z,11.26
2022-09-07T10:17:13.835Z,11.49
2022-09-07T10:19:43.823Z,11.65
2022-09-07T10:22:24.166Z,11.25
2022-09-07T10:24:52.824Z,10.96
2022-09-07T10:27:34.362Z,11.21
2022-09-07T10:30:13.961Z,10.89
2022-09-07T10:32:51.450Z,10.82
2022-09-07T10:35:25.466Z,10.71
2022-09-07T10:38:12.338Z,10.44
2022-09-07T10:40:44.390Z,10.38
2022-09-07T10:43:21.671Z,9.76
2022-09-07T10:46:56.941Z,9.74
2022-09-07T10:49:31.555Z,9.65
2022-09-07T10:52:07.769Z,9.56
2022-09-07T10:54:42.250Z,9.39
2022-09-07T10:57:32.651Z,9.04
2022-09-07T11:03:25.617Z,8.83
2022-09-07T11:06:06.582Z,8.63
2022-09-07T11:14:25.464Z,8.35
2022-09-07T11:16:56.419Z,8.34
2022-09-07T11:19:37.490Z,8.28
2022-09-07T11:22:18.932Z,8.28
2022-09-07T11:25:29.179Z,8.18
2022-09-07T11:27:43.682Z,8.34
2022-09-07T11:30:20.015Z,8.17
2022-09-07T11:32:55.248Z,8.36
2022-09-07T11:35:39.666Z,8.31
2022-09-07T11:38:16.237Z,8.69
2022-09-07T11:41:01.536Z,8.65
2022-09-07T11:43:32.333Z,8.72
2022-09-07T11:46:05.152Z,8.85
2022-09-07T11:48:38.203Z,8.86
2022-09-07T11:51:10.818Z,8.73
2022-09-07T11:53:45.245Z,8.78
2022-09-07T11:56:19.241Z,8.93
2022-09-07T11:59:03.520Z,8.85
2022-09-07T12:01:38.352Z,8.60
2022-09-07T12:04:34.525Z,8.63
2022-09-07T12:07:32.463Z,8.84
2022-09-07T12:10:33.096Z,8.83
2022-09-07T12:13:18.390Z,8.60
2022-09-07T12:15:54.263Z,8.58
2022-09-07T12:18:35.535Z,8.22
2022-09-07T12:21:04.086Z,8.47
2022-09-07T12:23:33.387Z,8.38
2022-09-07T12:26:44.216Z,8.14
2022-09-07T12:29:25.966Z,8.01
2022-09-07T12:32:07.316Z,8.28
2022-09-07T12:34:52.416Z,8.11
2022-09-07T12:37:54.515Z,8.01
2022-09-07T12:40:58.000Z,8.02
2022-09-07T12:43:37.721Z,8.05
2022-09-07T12:46:20.180Z,8.08
2022-09-07T12:48:55.280Z,8.21
2022-09-07T12:54:29.190Z,8.34
2022-09-07T12:59:58.097Z,8.25
2022-09-07T13:02:53.663Z,8.22
2022-09-07T13:05:34.446Z,8.01
2022-09-07T13:08:53.648Z,8.29
2022-09-07T13:11:33.211Z,8.24
2022-09-07T13:14:05.197Z,8.44
2022-09-07T13:20:03.125Z,8.48
2022-09-07T13:22:58.664Z,8.52
2022-09-07T13:25:57.776Z,8.55
2022-09-07T13:28:42.128Z,8.37
2022-09-07T13:31:34.951Z,8.26
2022-09-07T13:34:49.774Z,8.11
2022-09-07T13:37:21.295Z,8.09
2022-09-07T13:39:53.803Z,7.90
2022-09-07T13:42:25.954Z,7.88
2022-09-07T13:44:57.109Z,7.86
2022-09-07T13:47:36.501Z,7.83
2022-09-07T13:50:14.675Z,7.80
2022-09-07T13:52:53.828Z,7.77
2022-09-07T13:55:36.848Z,7.57
2022-09-07T13:58:14.157Z,7.70
2022-09-07T14:00:53.993Z,7.71
2022-09-07T14:03:24.864Z,7.73
2022-09-07T14:06:18.367Z,7.67
2022-09-07T14:08:49.455Z,7.76
2022-09-07T14:11:24.643Z,7.72
2022-09-07T14:14:15.019Z,7.72
2022-09-07T14:16:46.011Z,7.53
2022-09-07T14:19:19.228Z,7.41
2022-09-07T14:21:59.025Z,7.73
2022-09-07T14:24:34.436Z,7.60
2022-09-07T14:27:05.978Z,7.77
2022-09-07T14:29:36.412Z,7.77
2022-09-07T14:32:05.820Z,7.77
2022-09-07T14:34:36.620Z,7.81
2022-09-07T14:37:07.222Z,7.84
2022-09-07T14:39:41.438Z,7.36
2022-09-07T14:42:15.131Z,7.86
2022-09-07T14:44:46.239Z,7.88
2022-09-07T14:47:26.400Z,7.81
2022-09-07T14:49:56.880Z,7.75
2022-09-07T14:52:32.525Z,7.78
2022-09-07T14:55:02.154Z,7.88
2022-09-07T14:57:33.649Z,7.92
2022-09-07T15:00:20.883Z,7.93
2022-09-07T15:02:49.854Z,7.77
2022-09-07T15:05:22.637Z,8.00
2022-09-07T15:07:53.068Z,7.94
2022-09-07T15:10:37.254Z,8.01
2022-09-07T15:13:29.261Z,7.85
2022-09-07T15:16:03.287Z,7.98
2022-09-07T15:18:57.475Z,8.03
2022-09-07T15:21:27.940Z,8.00
2022-09-07T15:23:58.785Z,8.04
2022-09-07T15:29:32.094Z,7.99
2022-09-07T15:32:04.734Z,7.99
2022-09-07T15:34:34.658Z,7.97
2022-09-07T15:38:01.054Z,7.96
2022-09-07T15:39:56.300Z,7.96
2022-09-07T15:45:17.442Z,7.60
2022-09-07T15:47:51.210Z,8.04
2022-09-07T15:50:23.800Z,7.80
2022-09-07T15:52:52.431Z,7.98
2022-09-07T15:55:21.622Z,7.95
2022-09-07T15:57:56.786Z,7.89
2022-09-07T16:00:31.264Z,7.91
2022-09-07T16:03:08.486Z,7.89
2022-09-07T16:05:39.925Z,7.58
2022-09-07T16:08:27.586Z,7.71
2022-09-07T16:11:10.118Z,7.81
2022-09-07T16:13:41.361Z,7.86
2022-09-07T16:16:15.666Z,7.72
2022-09-07T16:18:47.276Z,7.87
2022-09-07T16:21:16.837Z,7.74
2022-09-07T16:23:48.935Z,7.83
2022-09-07T16:26:20.211Z,7.84
2022-09-07T16:28:51.392Z,7.77
2022-09-07T16:31:23.753Z,7.82
2022-09-07T16:33:54.856Z,7.79
2022-09-07T16:36:24.826Z,7.72
2022-09-07T16:38:56.853Z,7.57
2022-09-07T16:41:28.587Z,7.68
2022-09-07T16:43:57.981Z,7.76
2022-09-07T16:46:31.740Z,7.75
2022-09-07T16:49:01.447Z,7.76
2022-09-07T16:51:30.439Z,7.76
2022-09-07T16:54:02.535Z,7.78
2022-09-07T16:56:38.902Z,7.81
2022-09-07T16:59:10.910Z,7.82
2022-09-07T17:01:41.445Z,7.75
2022-09-07T17:04:11.764Z,7.82
2022-09-07T17:06:45.061Z,7.78
2022-09-07T17:09:17.251Z,7.71
2022-09-07T17:11:46.875Z,7.79
2022-09-07T17:14:16.205Z,7.78
2022-09-07T17:16:46.430Z,7.83
2022-09-07T17:19:32.220Z,7.66
2022-09-07T17:22:02.334Z,7.54
2022-09-07T17:24:32.749Z,7.68
2022-09-07T17:27:02.846Z,7.28
2022-09-07T17:29:37.402Z,7.69
2022-09-07T17:32:25.154Z,7.63
2022-09-07T17:34:56.274Z,7.27
2022-09-07T17:37:26.637Z,7.37
2022-09-07T17:39:55.310Z,7.51
2022-09-07T17:45:20.257Z,7.45
2022-09-07T17:47:51.068Z,7.23
2022-09-07T17:50:22.360Z,7.31
2022-09-07T17:52:54.188Z,7.21
2022-09-07T17:55:22.829Z,7.13
2022-09-07T17:57:54.771Z,7.10
2022-09-07T18:00:23.534Z,6.66
2022-09-07T18:02:54.498Z,7.03
2022-09-07T18:05:23.757Z,7.02
2022-09-07T18:07:53.020Z,7.01
2022-09-07T18:10:23.344Z,6.64
2022-09-07T18:12:54.927Z,6.95
2022-09-07T18:15:23.522Z,6.60
2022-09-07T18:17:53.816Z,6.88
2022-09-07T18:20:26.720Z,6.50
2022-09-07T18:22:56.093Z,6.80
2022-09-07T18:25:28.570Z,6.79
2022-09-07T18:30:47.007Z,6.79
2022-09-07T18:33:18.704Z,6.80
2022-09-07T18:35:50.670Z,6.76
2022-09-07T18:38:20.430Z,6.56
2022-09-07T18:40:51.102Z,6.73
2022-09-07T18:43:25.340Z,6.61
2022-09-07T18:45:57.559Z,6.41
2022-09-07T18:48:28.116Z,6.36
2022-09-07T18:50:57.615Z,6.57
2022-09-07T18:53:29.632Z,6.46
2022-09-07T18:56:06.355Z,6.52
2022-09-07T18:58:36.150Z,6.45
2022-09-07T19:01:07.468Z,6.44
2022-09-07T19:03:38.156Z,6.36
2022-09-07T19:06:09.233Z,6.21
2022-09-07T19:08:39.573Z,6.39
2022-09-07T19:11:10.343Z,6.01
2022-09-07T19:13:39.449Z,6.24
2022-09-07T19:16:12.739Z,6.34
2022-09-07T19:18:51.630Z,6.14
2022-09-07T19:21:25.333Z,6.24
2022-09-07T19:23:56.981Z,6.20
2022-09-07T19:26:26.874Z,5.84
2022-09-07T19:28:57.468Z,6.07
2022-09-07T19:34:14.019Z,5.97
2022-09-07T19:36:45.392Z,6.30
2022-09-07T19:39:15.328Z,6.01
2022-09-07T19:41:48.415Z,5.95
2022-09-07T19:44:19.582Z,6.33
2022-09-07T19:46:48.771Z,6.29
2022-09-07T19:49:21.982Z,6.34
2022-09-07T19:51:53.071Z,6.52
2022-09-07T19:54:23.812Z,6.36
2022-09-07T19:56:52.385Z,6.51
2022-09-07T19:59:20.989Z,6.30
2022-09-07T20:01:51.395Z,6.58
2022-09-07T20:04:25.017Z,6.46
2022-09-07T20:06:57.076Z,6.27
2022-09-07T20:09:28.269Z,6.12
2022-09-07T20:11:56.897Z,6.73
2022-09-07T20:14:25.603Z,6.69
2022-09-07T20:16:54.301Z,6.40
2022-09-07T20:19:27.560Z,6.75
2022-09-07T20:21:56.314Z,6.69
2022-09-07T20:24:24.999Z,6.67
2022-09-07T20:26:53.554Z,6.59
2022-09-07T20:29:29.457Z,6.68
2022-09-07T20:31:59.537Z,6.69
2022-09-07T20:34:30.133Z,6.63
2022-09-07T20:36:58.811Z,6.70
2022-09-07T20:39:27.417Z,6.68
2022-09-07T20:41:56.078Z,6.62
2022-09-07T20:44:24.709Z,6.08
2022-09-07T20:46:53.483Z,6.63
2022-09-07T20:49:22.095Z,6.64
2022-09-07T20:51:52.165Z,6.40
2022-09-07T20:54:20.696Z,6.68
2022-09-07T20:56:49.338Z,6.71
2022-09-07T20:59:18.066Z,6.64
2022-09-07T21:06:07.993Z,6.81
2022-09-07T21:08:38.807Z,6.82
2022-09-07T21:11:11.924Z,6.84
2022-09-07T21:13:41.030Z,6.82
2022-09-07T21:16:11.119Z,6.79
2022-09-07T21:18:41.914Z,6.78
2022-09-07T21:21:19.707Z,6.77
2022-09-07T21:23:50.974Z,6.78
2022-09-07T21:26:22.163Z,6.69
2022-09-07T21:28:56.067Z,6.85
2022-09-07T21:31:25.189Z,6.67
2022-09-07T21:33:56.027Z,6.64
2022-09-07T21:36:24.824Z,6.82
2022-09-07T21:38:55.111Z,6.35
2022-09-07T21:41:25.151Z,6.66
2022-09-07T21:43:56.751Z,6.56
2022-09-07T21:46:25.715Z,6.80
2022-09-07T21:48:55.577Z,6.82
2022-09-07T21:51:24.885Z,6.83
2022-09-07T21:53:55.858Z,6.84
2022-09-07T21:56:24.746Z,6.64
2022-09-07T21:58:57.123Z,6.88
2022-09-07T22:01:26.816Z,6.56
2022-09-07T22:03:56.991Z,6.40
2022-09-07T22:06:27.400Z,6.50
2022-09-07T22:08:58.821Z,6.85
2022-09-07T22:11:30.076Z,6.84
2022-09-07T22:14:00.564Z,6.45
2022-09-07T22:16:29.491Z,6.68
2022-09-07T22:18:58.292Z,6.87
2022-09-07T22:21:28.663Z,6.90
2022-09-07T22:23:59.913Z,6.94
2022-09-07T22:26:30.629Z,6.99
2022-09-07T22:29:00.195Z,6.88
2022-09-07T22:31:30.688Z,6.69
2022-09-07T22:34:01.946Z,6.89
2022-09-07T22:36:32.543Z,6.92
2022-09-07T22:39:06.071Z,6.59
2022-09-07T22:41:38.551Z,6.87
2022-09-07T22:44:09.550Z,7.12
2022-09-07T22:46:41.003Z,6.90
2022-09-07T22:49:10.386Z,6.87
2022-09-07T22:51:39.086Z,7.19
2022-09-07T22:54:09.516Z,7.21
2022-09-07T22:56:38.519Z,7.22
2022-09-07T22:59:08.992Z,7.23
2022-09-07T23:01:38.374Z,7.21
2022-09-07T23:04:07.835Z,7.22
2022-09-07T23:06:38.230Z,7.23
2022-09-07T23:09:09.749Z,7.10
2022-09-07T23:11:38.799Z,7.18
2022-09-07T23:14:09.325Z,7.00
2022-09-07T23:16:37.989Z,7.23
2022-09-07T23:19:07.075Z,6.96
2022-09-07T23:21:35.723Z,7.13
2022-09-07T23:24:04.719Z,6.80
2022-09-07T23:26:35.129Z,7.06
2022-09-07T23:29:06.264Z,6.97
2022-09-07T23:31:37.127Z,7.00
2022-09-07T23:34:06.072Z,7.12
2022-09-07T23:36:34.800Z,7.17
2022-09-07T23:39:03.452Z,7.10
2022-09-07T23:41:33.198Z,7.11
2022-09-07T23:44:03.611Z,6.70
2022-09-07T23:46:32.216Z,7.10
2022-09-07T23:49:00.898Z,6.68
2022-09-07T23:51:29.671Z,7.02
2022-09-07T23:53:58.208Z,7.18
2022-09-07T23:56:26.963Z,7.22
2022-09-07T23:58:55.572Z,7.18
